createdAt,value
2023-05-19T00:00:25.812Z,14.47
2023-05-19T00:01:26.084Z,14.47
2023-05-19T00:02:26.451Z,14.46
2023-05-19T00:03:26.702Z,14.43
2023-05-19T00:04:26.970Z,14.43
2023-05-19T00:05:27.455Z,14.38
2023-05-19T00:06:27.626Z,14.39
2023-05-19T00:07:27.828Z,14.38
2023-05-19T00:08:28.247Z,14.38
2023-05-19T00:09:28.485Z,14.35
2023-05-19T00:10:28.744Z,14.37
2023-05-19T00:11:29.064Z,14.37
2023-05-19T00:12:29.278Z,14.39
2023-05-19T00:13:29.637Z,14.38
2023-05-19T00:14:29.900Z,14.35
2023-05-19T00:15:30.226Z,14.37
2023-05-19T00:16:30.627Z,14.32
2023-05-19T00:17:30.891Z,14.34
2023-05-19T00:18:31.142Z,14.35
2023-05-19T00:19:31.562Z,14.38
2023-05-19T00:20:31.957Z,14.38
2023-05-19T00:21:32.107Z,14.37
2023-05-19T00:22:32.319Z,14.37
2023-05-19T00:23:32.571Z,14.35
2023-05-19T00:24:32.805Z,14.35
2023-05-19T00:25:33.572Z,14.31
2023-05-19T00:26:33.435Z,14.29
2023-05-19T00:27:33.683Z,14.28
2023-05-19T00:28:33.988Z,14.28
2023-05-19T00:29:34.329Z,14.28
2023-05-19T00:30:34.746Z,14.27
2023-05-19T00:31:34.987Z,14.24
2023-05-19T00:32:35.141Z,14.24
2023-05-19T00:33:35.465Z,14.21
2023-05-19T00:34:35.994Z,14.21
2023-05-19T00:35:36.070Z,14.20
2023-05-19T00:36:36.521Z,14.19
2023-05-19T00:37:36.635Z,14.19
2023-05-19T00:38:36.999Z,14.14
2023-05-19T00:39:37.325Z,14.06
2023-05-19T00:40:37.483Z,14.02
2023-05-19T00:41:37.789Z,14.06
2023-05-19T00:42:38.106Z,14.06
2023-05-19T00:43:38.417Z,14.02
2023-05-19T00:44:38.723Z,13.99
2023-05-19T00:45:39.006Z,13.99
2023-05-19T00:46:39.330Z,13.98
2023-05-19T00:47:39.680Z,13.96
2023-05-19T00:48:39.983Z,13.91
2023-05-19T00:49:40.291Z,13.95
2023-05-19T00:50:40.565Z,13.91
2023-05-19T00:51:40.887Z,13.88
2023-05-19T00:52:41.218Z,13.88
2023-05-19T00:53:41.565Z,13.87
2023-05-19T00:54:41.822Z,13.83
2023-05-19T00:55:42.190Z,13.81
2023-05-19T00:56:42.495Z,13.80
2023-05-19T00:57:42.797Z,13.80
2023-05-19T00:58:43.030Z,13.77
2023-05-19T00:59:43.980Z,13.76
2023-05-19T01:00:43.665Z,13.76
2023-05-19T01:01:43.945Z,13.76
2023-05-19T01:02:44.320Z,13.77
2023-05-19T01:03:44.728Z,13.76
2023-05-19T01:04:44.849Z,13.73
2023-05-19T01:05:45.135Z,13.71
2023-05-19T01:06:45.724Z,13.70
2023-05-19T01:07:45.813Z,13.67
2023-05-19T01:08:46.111Z,13.63
2023-05-19T01:09:46.435Z,13.59
2023-05-19T01:10:46.665Z,13.58
2023-05-19T01:11:47.072Z,13.54
2023-05-19T01:12:47.226Z,13.58
2023-05-19T01:13:47.514Z,13.58
2023-05-19T01:14:47.876Z,13.55
2023-05-19T01:15:48.173Z,13.52
2023-05-19T01:16:48.771Z,13.51
2023-05-19T01:17:48.752Z,13.51
2023-05-19T01:18:49.142Z,13.46
2023-05-19T01:19:49.288Z,13.41
2023-05-19T01:20:49.539Z,13.38
2023-05-19T01:21:49.860Z,13.36
2023-05-19T01:22:50.214Z,13.37
2023-05-19T01:23:50.481Z,13.33
2023-05-19T01:24:50.823Z,13.33
2023-05-19T01:25:51.066Z,13.30
2023-05-19T01:26:51.422Z,13.30
2023-05-19T01:27:51.682Z,13.29
2023-05-19T01:28:51.931Z,13.25
2023-05-19T01:29:52.252Z,13.25
2023-05-19T01:30:52.534Z,13.29
2023-05-19T01:31:52.866Z,13.29
2023-05-19T01:32:53.165Z,13.22
2023-05-19T01:33:53.531Z,13.18
2023-05-19T01:34:54.700Z,13.12
2023-05-19T01:35:54.011Z,13.12
2023-05-19T01:36:54.357Z,13.14
2023-05-19T01:37:54.611Z,13.11
2023-05-19T01:38:54.804Z,13.07
2023-05-19T01:39:55.054Z,13.04
2023-05-19T01:40:55.348Z,13.04
2023-05-19T01:41:55.745Z,13.00
2023-05-19T01:42:57.496Z,12.95
2023-05-19T01:43:56.242Z,12.95
2023-05-19T01:44:56.635Z,12.96
2023-05-19T01:45:56.880Z,12.96
2023-05-19T01:46:57.169Z,12.93
2023-05-19T01:47:57.571Z,12.89
2023-05-19T01:48:57.775Z,12.89
2023-05-19T01:49:57.998Z,12.89
2023-05-19T01:50:58.337Z,12.92
2023-05-19T01:51:58.559Z,12.89
2023-05-19T01:52:59.232Z,12.85
2023-05-19T01:53:59.082Z,12.84
2023-05-19T01:54:59.349Z,12.85
2023-05-19T01:56:00.557Z,12.84
2023-05-19T01:56:59.900Z,12.85
2023-05-19T01:58:00.233Z,12.82
2023-05-19T01:59:00.555Z,12.79
2023-05-19T02:00:00.748Z,12.79
2023-05-19T02:01:01.113Z,12.78
2023-05-19T02:02:01.394Z,12.78
2023-05-19T02:03:01.714Z,12.75
2023-05-19T02:04:02.353Z,12.71
2023-05-19T02:05:02.316Z,12.70
2023-05-19T02:06:02.577Z,12.66
2023-05-19T02:07:03.057Z,12.67
2023-05-19T02:08:03.253Z,12.67
2023-05-19T02:09:03.417Z,12.67
2023-05-19T02:10:04.566Z,12.67
2023-05-19T02:11:04.028Z,12.66
2023-05-19T02:12:04.467Z,12.69
2023-05-19T02:13:05.443Z,12.70
2023-05-19T02:14:04.936Z,12.75
2023-05-19T02:15:05.192Z,12.71
2023-05-19T02:16:05.619Z,12.67
2023-05-19T02:17:05.918Z,12.69
2023-05-19T02:18:06.217Z,12.67
2023-05-19T02:19:06.582Z,12.63
2023-05-19T02:20:06.718Z,12.64
2023-05-19T02:21:07.134Z,12.62
2023-05-19T02:22:07.342Z,12.60
2023-05-19T02:23:07.611Z,12.52
2023-05-19T02:24:07.988Z,12.52
2023-05-19T02:25:08.218Z,12.45
2023-05-19T02:26:08.590Z,12.46
2023-05-19T02:27:09.027Z,12.46
2023-05-19T02:28:09.140Z,12.45
2023-05-19T02:29:09.396Z,12.44
2023-05-19T02:30:09.710Z,12.41
2023-05-19T02:31:09.926Z,12.42
2023-05-19T02:32:10.309Z,12.41
2023-05-19T02:33:10.598Z,12.37
2023-05-19T02:34:10.909Z,12.33
2023-05-19T02:35:11.169Z,12.29
2023-05-19T02:36:11.482Z,12.26
2023-05-19T02:37:11.799Z,12.27
2023-05-19T02:38:12.051Z,12.23
2023-05-19T02:39:12.461Z,12.26
2023-05-19T02:40:12.670Z,12.23
2023-05-19T02:41:12.937Z,12.24
2023-05-19T02:42:13.663Z,12.21
2023-05-19T02:43:13.672Z,12.12
2023-05-19T02:44:13.915Z,12.13
2023-05-19T02:45:14.317Z,12.09
2023-05-19T02:46:15.510Z,12.08
2023-05-19T02:47:14.673Z,12.06
2023-05-19T02:48:14.857Z,12.08
2023-05-19T02:49:15.182Z,12.08
2023-05-19T02:50:15.969Z,12.11
2023-05-19T02:51:15.849Z,12.13
2023-05-19T02:52:16.192Z,12.09
2023-05-19T02:53:16.312Z,12.06
2023-05-19T02:54:17.138Z,12.05
2023-05-19T02:55:16.966Z,12.05
2023-05-19T02:56:17.235Z,11.97
2023-05-19T02:57:17.506Z,11.96
2023-05-19T02:58:17.852Z,11.94
2023-05-19T02:59:18.071Z,11.90
2023-05-19T03:00:18.474Z,11.89
2023-05-19T03:01:18.609Z,11.93
2023-05-19T03:02:18.948Z,11.89
2023-05-19T03:03:19.197Z,11.89
2023-05-19T03:04:19.593Z,11.86
2023-05-19T03:05:19.759Z,11.89
2023-05-19T03:06:19.973Z,11.89
2023-05-19T03:07:20.325Z,11.83
2023-05-19T03:08:20.670Z,11.82
2023-05-19T03:09:20.886Z,11.74
2023-05-19T03:10:21.333Z,11.72
2023-05-19T03:11:21.640Z,11.68
2023-05-19T03:12:22.005Z,11.67
2023-05-19T03:13:22.292Z,11.68
2023-05-19T03:14:22.894Z,11.68
2023-05-19T03:15:22.690Z,11.70
2023-05-19T03:16:23.054Z,11.68
2023-05-19T03:17:23.270Z,11.67
2023-05-19T03:18:23.607Z,11.67
2023-05-19T03:19:24.063Z,11.68
2023-05-19T03:20:24.021Z,11.68
2023-05-19T03:21:24.300Z,11.64
2023-05-19T03:22:24.783Z,11.67
2023-05-19T03:23:24.969Z,11.67
2023-05-19T03:24:26.149Z,11.70
2023-05-19T03:25:25.531Z,11.68
2023-05-19T03:26:25.967Z,11.65
2023-05-19T03:27:26.117Z,11.65
2023-05-19T03:28:26.360Z,11.65
2023-05-19T03:29:26.816Z,11.67
2023-05-19T03:30:26.891Z,11.67
2023-05-19T03:31:27.130Z,11.67
2023-05-19T03:32:27.519Z,11.65
2023-05-19T03:33:27.767Z,11.68
2023-05-19T03:34:27.977Z,11.72
2023-05-19T03:35:28.338Z,11.72
2023-05-19T03:36:28.616Z,11.72
2023-05-19T03:37:28.965Z,11.70
2023-05-19T03:38:29.269Z,11.68
2023-05-19T03:39:29.574Z,11.68
2023-05-19T03:40:29.987Z,11.68
2023-05-19T03:41:30.320Z,11.68
2023-05-19T03:42:30.594Z,11.62
2023-05-19T03:43:30.860Z,11.62
2023-05-19T03:44:31.036Z,11.61
2023-05-19T03:45:31.373Z,11.59
2023-05-19T03:46:31.722Z,11.57
2023-05-19T03:47:32.043Z,11.56
2023-05-19T03:48:32.196Z,11.59
2023-05-19T03:49:32.503Z,11.54
2023-05-19T03:50:33.074Z,11.54
2023-05-19T03:51:33.052Z,11.57
2023-05-19T03:52:33.460Z,11.57
2023-05-19T03:53:33.710Z,11.59
2023-05-19T03:54:33.933Z,11.57
2023-05-19T03:55:34.314Z,11.57
2023-05-19T03:56:34.544Z,11.61
2023-05-19T03:57:34.777Z,11.59
2023-05-19T03:58:35.056Z,11.61
2023-05-19T03:59:35.479Z,11.64
2023-05-19T04:00:35.958Z,11.64
2023-05-19T04:01:35.913Z,11.65
2023-05-19T04:02:36.200Z,11.67
2023-05-19T04:03:36.411Z,11.67
2023-05-19T04:04:36.766Z,11.61
2023-05-19T04:05:37.022Z,11.61
2023-05-19T04:06:37.256Z,11.57
2023-05-19T04:07:37.688Z,11.59
2023-05-19T04:08:37.830Z,11.54
2023-05-19T04:09:38.169Z,11.50
2023-05-19T04:10:38.527Z,11.44
2023-05-19T04:11:38.739Z,11.46
2023-05-19T04:12:39.031Z,11.44
2023-05-19T04:13:39.201Z,11.49
2023-05-19T04:14:39.390Z,11.47
2023-05-19T04:15:39.813Z,11.47
2023-05-19T04:16:40.009Z,11.49
2023-05-19T04:17:40.346Z,11.49
2023-05-19T04:18:40.667Z,11.52
2023-05-19T04:19:41.008Z,11.47
2023-05-19T04:20:41.216Z,11.47
2023-05-19T04:21:41.588Z,11.46
2023-05-19T04:22:41.995Z,11.47
2023-05-19T04:23:42.233Z,11.50
2023-05-19T04:24:42.411Z,11.50
2023-05-19T04:25:42.832Z,11.56
2023-05-19T04:26:43.031Z,11.53
2023-05-19T04:27:43.448Z,11.54
2023-05-19T04:28:43.682Z,11.56
2023-05-19T04:29:43.880Z,11.59
2023-05-19T04:30:44.184Z,11.59
2023-05-19T04:31:44.697Z,11.59
2023-05-19T04:32:44.830Z,11.59
2023-05-19T04:33:45.948Z,11.56
2023-05-19T04:34:45.343Z,11.54
2023-05-19T04:35:45.665Z,11.54
2023-05-19T04:36:45.979Z,11.54
2023-05-19T04:37:46.183Z,11.56
2023-05-19T04:38:46.571Z,11.53
2023-05-19T04:39:46.800Z,11.53
2023-05-19T04:40:47.188Z,11.53
2023-05-19T04:41:47.402Z,11.56
2023-05-19T04:42:47.691Z,11.59
2023-05-19T04:43:48.021Z,11.59
2023-05-19T04:44:48.341Z,11.59
2023-05-19T04:45:48.793Z,11.59
2023-05-19T04:46:48.971Z,11.61
2023-05-19T04:47:49.445Z,11.64
2023-05-19T04:48:49.624Z,11.61
2023-05-19T04:49:49.849Z,11.59
2023-05-19T04:50:50.305Z,11.59
2023-05-19T04:51:51.118Z,11.57
2023-05-19T04:52:50.590Z,11.59
2023-05-19T04:53:50.824Z,11.56
2023-05-19T04:54:51.423Z,11.54
2023-05-19T04:55:51.477Z,11.56
2023-05-19T04:56:51.841Z,11.56
2023-05-19T04:57:52.084Z,11.57
2023-05-19T04:58:52.480Z,11.54
2023-05-19T04:59:52.679Z,11.54
2023-05-19T05:00:52.989Z,11.61
2023-05-19T05:01:53.407Z,11.57
2023-05-19T05:02:53.729Z,11.61
2023-05-19T05:03:53.938Z,11.61
2023-05-19T05:04:54.237Z,11.64
2023-05-19T05:05:54.431Z,11.64
2023-05-19T05:06:54.752Z,11.64
2023-05-19T05:07:55.279Z,11.62
2023-05-19T05:08:55.494Z,11.62
2023-05-19T05:09:55.738Z,11.61
2023-05-19T05:10:55.950Z,11.57
2023-05-19T05:11:56.266Z,11.56
2023-05-19T05:12:56.584Z,11.57
2023-05-19T05:13:56.957Z,11.59
2023-05-19T05:14:57.239Z,11.61
2023-05-19T05:15:57.438Z,11.57
2023-05-19T05:16:57.815Z,11.61
2023-05-19T05:17:58.089Z,11.61
2023-05-19T05:18:58.423Z,11.62
2023-05-19T05:19:58.577Z,11.65
2023-05-19T05:20:58.848Z,11.70
2023-05-19T05:21:59.056Z,11.71
2023-05-19T05:22:59.391Z,11.75
2023-05-19T05:23:59.761Z,11.77
2023-05-19T05:24:59.887Z,11.75
2023-05-19T05:26:00.080Z,11.77
2023-05-19T05:27:04.557Z,11.78
2023-05-19T05:28:01.129Z,11.80
2023-05-19T05:29:01.062Z,11.83
2023-05-19T05:30:01.215Z,11.90
2023-05-19T05:31:01.553Z,11.89
2023-05-19T05:32:01.806Z,11.85
2023-05-19T05:33:02.116Z,11.87
2023-05-19T05:34:02.446Z,11.87
2023-05-19T05:35:02.685Z,11.93
2023-05-19T05:36:02.887Z,11.97
2023-05-19T05:37:03.308Z,12.02
2023-05-19T05:38:03.459Z,12.06
2023-05-19T05:39:03.723Z,12.11
2023-05-19T05:40:04.075Z,12.12
2023-05-19T05:41:04.283Z,12.15
2023-05-19T05:42:04.511Z,12.15
2023-05-19T05:43:04.863Z,12.16
2023-05-19T05:44:05.046Z,12.16
2023-05-19T05:45:05.287Z,12.21
2023-05-19T05:46:05.637Z,12.24
2023-05-19T05:47:05.886Z,12.29
2023-05-19T05:48:06.134Z,12.29
2023-05-19T05:49:06.923Z,12.31
2023-05-19T05:50:06.670Z,12.31
2023-05-19T05:51:06.962Z,12.33
2023-05-19T05:52:07.198Z,12.38
2023-05-19T05:53:07.508Z,12.39
2023-05-19T05:54:07.781Z,12.38
2023-05-19T05:55:08.281Z,12.44
2023-05-19T05:56:08.364Z,12.45
2023-05-19T05:57:08.617Z,12.49
2023-05-19T05:58:08.847Z,12.52
2023-05-19T05:59:09.123Z,12.57
2023-05-19T06:00:09.317Z,12.66
2023-05-19T06:01:09.755Z,12.69
2023-05-19T06:02:09.988Z,12.70
2023-05-19T06:03:10.377Z,12.74
2023-05-19T06:04:10.449Z,12.84
2023-05-19T06:05:10.690Z,12.88
2023-05-19T06:06:11.151Z,12.95
2023-05-19T06:07:11.174Z,12.96
2023-05-19T06:08:11.470Z,13.03
2023-05-19T06:09:11.794Z,13.07
2023-05-19T06:10:11.982Z,13.14
2023-05-19T06:11:12.353Z,13.15
2023-05-19T06:12:12.668Z,13.24
2023-05-19T06:13:12.955Z,13.29
2023-05-19T06:14:13.202Z,13.25
2023-05-19T06:15:13.425Z,13.30
2023-05-19T06:16:13.772Z,13.32
2023-05-19T06:17:13.969Z,13.37
2023-05-19T06:18:14.302Z,13.40
2023-05-19T06:19:14.556Z,13.46
2023-05-19T06:20:14.843Z,13.52
2023-05-19T06:21:15.060Z,13.55
2023-05-19T06:22:15.283Z,13.61
2023-05-19T06:23:15.535Z,13.67
2023-05-19T06:24:15.949Z,13.71
2023-05-19T06:25:16.378Z,13.77
2023-05-19T06:26:16.447Z,13.79
2023-05-19T06:27:16.656Z,13.76
2023-05-19T06:28:17.077Z,13.79
2023-05-19T06:29:17.316Z,13.80
2023-05-19T06:30:17.854Z,13.80
2023-05-19T06:31:17.938Z,13.84
2023-05-19T06:32:18.260Z,13.83
2023-05-19T06:33:21.798Z,13.94
2023-05-19T06:34:18.762Z,14.02
2023-05-19T06:35:19.966Z,14.07
2023-05-19T06:36:19.364Z,14.13
2023-05-19T06:37:19.556Z,14.16
2023-05-19T06:38:19.875Z,14.20
2023-05-19T06:39:20.284Z,14.28
2023-05-19T06:40:20.483Z,14.29
2023-05-19T06:41:20.984Z,14.28
2023-05-19T06:42:21.046Z,14.24
2023-05-19T06:43:22.226Z,14.29
2023-05-19T06:44:21.581Z,14.34
2023-05-19T06:45:21.839Z,14.43
2023-05-19T06:46:22.095Z,14.50
2023-05-19T06:47:22.407Z,14.56
2023-05-19T06:48:22.555Z,14.65
2023-05-19T06:49:22.893Z,14.64
2023-05-19T06:50:23.155Z,14.64
2023-05-19T06:51:23.423Z,14.69
2023-05-19T06:52:23.682Z,14.72
2023-05-19T06:53:24.929Z,14.72
2023-05-19T06:54:24.190Z,14.74
2023-05-19T06:55:24.488Z,14.75
2023-05-19T06:56:24.781Z,14.83
2023-05-19T06:57:25.013Z,14.87
2023-05-19T06:58:25.314Z,14.93
2023-05-19T06:59:25.528Z,14.95
2023-05-19T07:00:25.861Z,14.99
2023-05-19T07:01:26.270Z,15.06
2023-05-19T07:02:26.348Z,15.12
2023-05-19T07:03:26.727Z,15.19
2023-05-19T07:04:26.921Z,15.20
2023-05-19T07:05:27.135Z,15.20
2023-05-19T07:06:27.468Z,15.21
2023-05-19T07:07:27.690Z,15.30
2023-05-19T07:08:27.961Z,15.38
2023-05-19T07:09:29.172Z,15.38
2023-05-19T07:10:28.417Z,15.39
2023-05-19T07:11:28.823Z,15.42
2023-05-19T07:12:29.102Z,15.49
2023-05-19T07:13:29.440Z,15.59
2023-05-19T07:14:29.735Z,15.61
2023-05-19T07:15:29.973Z,15.59
2023-05-19T07:16:30.250Z,15.57
2023-05-19T07:17:31.502Z,15.63
2023-05-19T07:18:30.706Z,15.60
2023-05-19T07:19:31.061Z,15.66
2023-05-19T07:20:31.427Z,15.67
2023-05-19T07:21:31.578Z,15.68
2023-05-19T07:22:32.092Z,15.74
2023-05-19T07:23:32.124Z,15.76
2023-05-19T07:24:32.348Z,15.72
2023-05-19T07:25:32.652Z,15.76
2023-05-19T07:26:32.980Z,15.76
2023-05-19T07:27:33.140Z,15.79
2023-05-19T07:28:34.499Z,15.79
2023-05-19T07:29:33.812Z,15.79
2023-05-19T07:30:34.266Z,15.85
2023-05-19T07:31:34.272Z,15.86
2023-05-19T07:32:34.588Z,15.86
2023-05-19T07:33:34.970Z,15.86
2023-05-19T07:34:35.168Z,15.89
2023-05-19T07:35:35.372Z,15.97
2023-05-19T07:36:35.741Z,16.04
2023-05-19T07:37:36.192Z,16.11
2023-05-19T07:38:36.329Z,16.06
2023-05-19T07:39:36.577Z,16.11
2023-05-19T07:40:36.854Z,16.15
2023-05-19T07:41:37.959Z,16.23
2023-05-19T07:42:37.381Z,16.31
2023-05-19T07:43:37.597Z,16.38
2023-05-19T07:44:37.821Z,16.41
2023-05-19T07:45:38.276Z,16.49
2023-05-19T07:46:38.433Z,16.56
2023-05-19T07:47:38.777Z,16.63
2023-05-19T07:48:38.985Z,16.68
2023-05-19T07:49:39.197Z,16.68
2023-05-19T07:50:39.510Z,16.74
2023-05-19T07:51:39.722Z,16.78
2023-05-19T07:52:40.248Z,16.86
2023-05-19T07:53:40.315Z,16.96
2023-05-19T07:54:40.575Z,16.85
2023-05-19T07:55:40.787Z,16.83
2023-05-19T07:56:41.153Z,16.92
2023-05-19T07:57:41.553Z,17.04
2023-05-19T07:58:41.691Z,17.22
2023-05-19T07:59:42.090Z,17.30
2023-05-19T08:00:42.631Z,17.40
2023-05-19T08:01:42.623Z,17.53
2023-05-19T08:02:43.192Z,17.74
2023-05-19T08:03:43.466Z,18.02
2023-05-19T08:04:44.075Z,18.34
2023-05-19T08:05:43.776Z,18.64
2023-05-19T08:06:44.094Z,18.80
2023-05-19T08:07:44.281Z,19.01
2023-05-19T08:08:44.579Z,19.24
2023-05-19T08:09:44.920Z,19.46
2023-05-19T08:10:45.122Z,19.75
2023-05-19T08:11:45.344Z,19.93
2023-05-19T08:12:46.159Z,20.18
2023-05-19T08:13:45.864Z,20.20
2023-05-19T08:14:46.172Z,20.12
2023-05-19T08:15:46.444Z,20.41
2023-05-19T08:16:46.684Z,20.76
2023-05-19T08:17:47.050Z,21.08
2023-05-19T08:18:47.235Z,20.96
2023-05-19T08:19:47.499Z,21.09
2023-05-19T08:20:47.788Z,21.46
2023-05-19T08:21:47.989Z,21.76
2023-05-19T08:22:48.238Z,21.99
2023-05-19T08:23:48.512Z,22.09
2023-05-19T08:24:48.758Z,21.69
2023-05-19T08:25:49.040Z,21.69
2023-05-19T08:26:49.312Z,21.81
2023-05-19T08:27:50.618Z,21.92
2023-05-19T08:28:49.875Z,21.64
2023-05-19T08:29:50.104Z,21.30
2023-05-19T08:30:50.292Z,21.27
2023-05-19T08:31:50.827Z,21.16
2023-05-19T08:32:51.131Z,21.11
2023-05-19T08:33:51.255Z,21.51
2023-05-19T08:34:51.482Z,21.71
2023-05-19T08:35:51.710Z,21.82
2023-05-19T08:36:52.147Z,22.28
2023-05-19T08:37:52.451Z,22.47
2023-05-19T08:38:52.745Z,22.59
2023-05-19T08:39:53.221Z,22.62
2023-05-19T08:40:53.227Z,22.54
2023-05-19T08:41:53.457Z,22.12
2023-05-19T08:42:53.702Z,21.97
2023-05-19T08:43:54.225Z,21.98
2023-05-19T08:44:54.240Z,21.98
2023-05-19T08:45:54.478Z,22.14
2023-05-19T08:46:54.794Z,22.46
2023-05-19T08:47:55.099Z,22.46
2023-05-19T08:48:55.313Z,22.29
2023-05-19T08:49:55.578Z,22.64
2023-05-19T08:50:56.039Z,22.92
2023-05-19T08:51:56.030Z,23.29
2023-05-19T08:52:56.359Z,23.55
2023-05-19T08:53:56.737Z,23.43
2023-05-19T08:54:56.996Z,23.52
2023-05-19T08:55:57.211Z,23.64
2023-05-19T08:56:57.749Z,23.87
2023-05-19T08:57:57.981Z,23.95
2023-05-19T08:58:58.231Z,24.34
2023-05-19T08:59:58.448Z,24.31
2023-05-19T09:00:59.069Z,24.19
2023-05-19T09:01:59.107Z,24.45
2023-05-19T09:03:00.935Z,24.54
2023-05-19T09:04:00.689Z,24.52
2023-05-19T09:04:59.948Z,24.31
2023-05-19T09:06:00.189Z,24.31
2023-05-19T09:07:01.338Z,24.41
2023-05-19T09:08:00.709Z,24.20
2023-05-19T09:09:01.373Z,23.76
2023-05-19T09:10:01.258Z,23.71
2023-05-19T09:11:01.462Z,23.89
2023-05-19T09:12:01.662Z,24.34
2023-05-19T09:13:01.980Z,24.71
2023-05-19T09:14:02.350Z,25.01
2023-05-19T09:15:02.608Z,25.19
2023-05-19T09:16:03.096Z,25.47
2023-05-19T09:17:03.430Z,25.54
2023-05-19T09:18:03.588Z,25.46
2023-05-19T09:19:03.893Z,25.10
2023-05-19T09:20:04.082Z,25.16
2023-05-19T09:21:04.305Z,25.20
2023-05-19T09:22:04.656Z,24.54
2023-05-19T09:23:05.132Z,24.57
2023-05-19T09:24:05.153Z,25.00
2023-05-19T09:25:05.355Z,25.01
2023-05-19T09:26:05.750Z,24.91
2023-05-19T09:27:06.028Z,24.32
2023-05-19T09:28:06.291Z,23.85
2023-05-19T09:29:06.600Z,23.68
2023-05-19T09:30:06.715Z,24.01
2023-05-19T09:31:07.089Z,24.35
2023-05-19T09:32:07.355Z,24.73
2023-05-19T09:33:07.865Z,25.05
2023-05-19T09:34:07.901Z,25.42
2023-05-19T09:35:08.109Z,25.57
2023-05-19T09:36:08.637Z,25.59
2023-05-19T09:37:08.814Z,25.05
2023-05-19T09:38:09.125Z,24.77
2023-05-19T09:39:09.318Z,24.97
2023-05-19T09:40:11.103Z,24.85
2023-05-19T09:41:09.970Z,25.12
2023-05-19T09:42:10.200Z,24.26
2023-05-19T09:43:10.359Z,23.45
2023-05-19T09:44:10.978Z,22.65
2023-05-19T09:45:11.016Z,22.62
2023-05-19T09:46:12.952Z,22.89
2023-05-19T09:47:11.574Z,23.08
2023-05-19T09:48:11.780Z,23.22
2023-05-19T09:49:12.132Z,23.40
2023-05-19T09:50:12.695Z,23.42
2023-05-19T09:51:12.706Z,23.43
2023-05-19T09:52:12.963Z,23.50
2023-05-19T09:53:13.166Z,23.05
2023-05-19T09:54:16.383Z,22.97
2023-05-19T09:55:13.849Z,22.90
2023-05-19T09:56:14.180Z,22.97
2023-05-19T09:57:14.453Z,23.15
2023-05-19T09:58:14.802Z,23.22
2023-05-19T09:59:14.994Z,23.17
2023-05-19T10:00:15.231Z,23.19
2023-05-19T10:01:15.567Z,23.04
2023-05-19T10:02:15.848Z,22.87
2023-05-19T10:03:16.090Z,22.60
2023-05-19T10:04:16.280Z,22.37
2023-05-19T10:05:17.157Z,22.59
2023-05-19T10:06:17.006Z,22.60
2023-05-19T10:07:17.299Z,22.84
2023-05-19T10:08:17.498Z,23.15
2023-05-19T10:09:17.726Z,23.62
2023-05-19T10:10:17.969Z,24.22
2023-05-19T10:11:19.439Z,24.67
2023-05-19T10:12:18.755Z,25.13
2023-05-19T10:13:18.890Z,25.28
2023-05-19T10:14:19.196Z,25.20
2023-05-19T10:15:22.158Z,25.25
2023-05-19T10:16:19.835Z,25.37
2023-05-19T10:17:20.068Z,25.53
2023-05-19T10:18:20.476Z,25.80
2023-05-19T10:19:20.804Z,25.39
2023-05-19T10:20:20.817Z,24.87
2023-05-19T10:21:21.046Z,24.60
2023-05-19T10:22:21.350Z,24.52
2023-05-19T10:23:21.585Z,24.42
2023-05-19T10:24:21.951Z,24.08
2023-05-19T10:25:22.186Z,23.55
2023-05-19T10:26:22.607Z,23.05
2023-05-19T10:27:22.813Z,22.56
2023-05-19T10:28:23.311Z,22.60
2023-05-19T10:29:23.501Z,23.14
2023-05-19T10:30:23.903Z,23.75
2023-05-19T10:31:24.258Z,24.56
2023-05-19T10:32:24.563Z,25.16
2023-05-19T10:33:24.893Z,25.37
2023-05-19T10:34:25.244Z,25.67
2023-05-19T10:35:25.370Z,25.75
2023-05-19T10:36:25.604Z,26.12
2023-05-19T10:37:25.887Z,26.09
2023-05-19T10:38:26.384Z,25.83
2023-05-19T10:39:26.357Z,25.91
2023-05-19T10:40:26.607Z,26.54
2023-05-19T10:41:26.896Z,26.95
2023-05-19T10:42:27.157Z,26.94
2023-05-19T10:43:27.454Z,27.09
2023-05-19T10:44:27.782Z,27.19
2023-05-19T10:45:28.066Z,27.05
2023-05-19T10:46:28.316Z,27.02
2023-05-19T10:47:29.458Z,27.17
2023-05-19T10:48:29.023Z,27.43
2023-05-19T10:49:29.150Z,27.32
2023-05-19T10:50:29.374Z,27.35
2023-05-19T10:51:29.679Z,27.39
2023-05-19T10:52:29.971Z,27.14
2023-05-19T10:53:30.188Z,26.94
2023-05-19T10:54:30.739Z,27.16
2023-05-19T10:55:30.954Z,27.50
2023-05-19T10:56:31.114Z,27.89
2023-05-19T10:57:31.334Z,27.84
2023-05-19T10:58:31.658Z,27.59
2023-05-19T10:59:32.130Z,27.17
2023-05-19T11:00:32.229Z,26.52
2023-05-19T11:01:32.496Z,26.55
2023-05-19T11:02:32.772Z,26.74
2023-05-19T11:03:33.072Z,26.79
2023-05-19T11:04:33.792Z,26.86
2023-05-19T11:05:33.810Z,26.68
2023-05-19T11:06:34.106Z,26.28
2023-05-19T11:07:34.164Z,26.02
2023-05-19T11:08:34.411Z,25.72
2023-05-19T11:09:40.320Z,25.38
2023-05-19T11:10:36.089Z,24.68
2023-05-19T11:11:35.263Z,23.98
2023-05-19T11:12:35.579Z,24.35
2023-05-19T11:13:36.719Z,24.59
2023-05-19T11:14:36.086Z,24.94
2023-05-19T11:15:36.328Z,24.75
2023-05-19T11:16:36.669Z,25.16
2023-05-19T11:17:37.012Z,25.69
2023-05-19T11:18:37.423Z,26.27
2023-05-19T11:19:39.438Z,26.72
2023-05-19T11:20:37.951Z,27.28
2023-05-19T11:21:38.094Z,27.77
2023-05-19T11:22:38.422Z,27.76
2023-05-19T11:23:38.831Z,27.76
2023-05-19T11:24:39.094Z,27.94
2023-05-19T11:25:39.319Z,28.28
2023-05-19T11:26:39.666Z,28.16
2023-05-19T11:27:40.094Z,27.96
2023-05-19T11:28:40.231Z,27.88
2023-05-19T11:29:40.528Z,27.29
2023-05-19T11:30:40.762Z,26.44
2023-05-19T11:31:41.151Z,25.65
2023-05-19T11:32:41.378Z,25.05
2023-05-19T11:33:41.784Z,24.76
2023-05-19T11:34:41.966Z,24.56
2023-05-19T11:35:43.156Z,24.00
2023-05-19T11:36:42.571Z,23.97
2023-05-19T11:37:42.821Z,23.50
2023-05-19T11:38:43.075Z,23.43
2023-05-19T11:39:43.334Z,22.89
2023-05-19T11:40:43.646Z,22.82
2023-05-19T11:41:43.840Z,23.05
2023-05-19T11:42:44.220Z,23.39
2023-05-19T11:43:44.452Z,23.45
2023-05-19T11:44:44.833Z,23.24
2023-05-19T11:45:45.069Z,23.02
2023-05-19T11:46:45.377Z,23.08
2023-05-19T11:48:00.062Z,23.47
2023-05-19T11:48:47.745Z,23.58
2023-05-19T11:49:46.091Z,23.24
2023-05-19T11:50:46.351Z,23.19
2023-05-19T11:51:46.894Z,23.26
2023-05-19T11:52:46.902Z,23.46
2023-05-19T11:53:48.034Z,23.38
2023-05-19T11:54:47.560Z,23.45
2023-05-19T11:55:49.033Z,23.55
2023-05-19T11:56:48.118Z,23.49
2023-05-19T11:58:02.154Z,23.38
2023-05-19T11:58:49.660Z,23.31
2023-05-19T11:59:48.921Z,23.29
2023-05-19T12:00:49.257Z,23.17
2023-05-19T12:01:49.471Z,23.12
2023-05-19T12:02:49.850Z,22.96
2023-05-19T12:03:50.152Z,22.84
2023-05-19T12:04:50.400Z,22.78
2023-05-19T12:05:50.810Z,22.64
2023-05-19T12:06:51.165Z,22.59
2023-05-19T12:07:51.221Z,22.56
2023-05-19T12:08:51.520Z,22.57
2023-05-19T12:09:51.796Z,22.59
2023-05-19T12:10:52.101Z,22.46
2023-05-19T12:11:52.357Z,22.59
2023-05-19T12:12:52.670Z,22.67
2023-05-19T12:13:52.889Z,22.62
2023-05-19T12:14:53.199Z,22.59
2023-05-19T12:15:53.481Z,22.69
2023-05-19T12:16:53.819Z,22.80
2023-05-19T12:17:53.956Z,22.83
2023-05-19T12:18:55.132Z,22.83
2023-05-19T12:19:55.423Z,22.93
2023-05-19T12:20:56.269Z,23.01
2023-05-19T12:21:55.131Z,22.94
2023-05-19T12:22:55.354Z,22.90
2023-05-19T12:23:55.574Z,22.96
2023-05-19T12:24:55.903Z,23.07
2023-05-19T12:25:57.140Z,23.17
2023-05-19T12:26:56.570Z,23.26
2023-05-19T12:27:58.057Z,23.26
2023-05-19T12:28:57.236Z,23.15
2023-05-19T12:29:57.361Z,23.07
2023-05-19T12:30:57.838Z,22.99
2023-05-19T12:31:57.993Z,22.97
2023-05-19T12:32:58.419Z,23.04
2023-05-19T12:33:58.673Z,23.17
2023-05-19T12:34:59.130Z,23.12
2023-05-19T12:35:59.264Z,23.12
2023-05-19T12:36:59.460Z,23.09
2023-05-19T12:37:59.859Z,23.07
2023-05-19T12:39:00.165Z,23.07
2023-05-19T12:40:00.358Z,22.92
2023-05-19T12:41:00.822Z,22.67
2023-05-19T12:42:01.084Z,22.62
2023-05-19T12:43:01.288Z,22.50
2023-05-19T12:44:01.520Z,22.34
2023-05-19T12:45:03.320Z,22.32
2023-05-19T12:46:02.194Z,22.32
2023-05-19T12:47:02.453Z,22.38
2023-05-19T12:48:02.725Z,22.43
2023-05-19T12:49:02.942Z,22.28
2023-05-19T12:50:03.311Z,22.35
2023-05-19T12:51:03.566Z,22.41
2023-05-19T12:52:07.181Z,22.38
2023-05-19T12:53:05.108Z,22.13
2023-05-19T12:54:04.595Z,22.25
2023-05-19T12:55:05.038Z,22.34
2023-05-19T12:56:04.981Z,22.41